WetterOnline ( https://www.wetteronline.at )

Wetter aktuell Feldberg (Gipfel)

Aktuelles Wetter: Feldberg/Schwarzwald (1493m)

6-stündlich | Neueste Meldungen
Ortszeit Temperatur Wetter
Mo, 05.12. 13:00 -4.0° C Nebel
Mo, 05.12. 7:00 -3.1° C bedeckt
Mo, 05.12. 1:00 -1.2° C Schneegriesel
So, 04.12. 19:00 0.4° C Nebel
So, 04.12. 13:00 2.4° C leichter Regen
So, 04.12. 7:00 5.6° C wolkig
So, 04.12. 1:00 3.0° C leicht bewölkt
Sa, 03.12. 19:00 0.0° C bedeckt
Ortszeit Temperatur Wetter
Mo, 05.12. 16:00 -3.6° C Nebel
Mo, 05.12. 15:50 -3.6° C Nebel
Mo, 05.12. 15:40 -3.6° C bedeckt
Mo, 05.12. 15:30 -3.5° C Nebel
Mo, 05.12. 15:20 -3.5° C Nebel
Mo, 05.12. 15:10 -3.6° C Nebel
Mo, 05.12. 15:00 -3.7° C Nebel
Mo, 05.12. 14:30 -3.9° C Nebel
Mo, 05.12. 14:00 -3.8° C Nebel
Mo, 05.12. 13:30 -4.0° C Nebel
Mo, 05.12. 13:00 -4.0° C Nebel
Ortszeit Relative Feuchte Sichtweite
Mo, 05.12. 13:00 96% 100 m
Mo, 05.12. 7:00 93% 35 km
Mo, 05.12. 1:00 99% <100 m
So, 04.12. 19:00 100% 100 m
So, 04.12. 13:00 85% 20 km
So, 04.12. 7:00 38% >70 km
So, 04.12. 1:00 62% >70 km
Sa, 03.12. 19:00 52% >70 km
Ortszeit Relative Feuchte Sichtweite
Mo, 05.12. 16:00 97% 100 m
Mo, 05.12. 15:50 97% -
Mo, 05.12. 15:40 96% -
Mo, 05.12. 15:30 96% <100 m
Mo, 05.12. 15:20 96% -
Mo, 05.12. 15:10 96% -
Mo, 05.12. 15:00 96% <100 m
Mo, 05.12. 14:30 96% 100 m
Mo, 05.12. 14:00 96% 100 m
Mo, 05.12. 13:30 96% 100 m
Mo, 05.12. 13:00 96% 100 m
Ortszeit Niederschlagsmenge Niederschlagsart
Mo, 05.12. 13:00 0.1 l/m2 in 6 Std. Schnee
Mo, 05.12. 7:00 0.1 l/m2 in 12 Std. Schnee, Regen
Mo, 05.12. 1:00 0.1 l/m2 in 6 Std. Schnee
So, 04.12. 19:00 3 l/m2 in 12 Std. Schnee, Regen
So, 04.12. 13:00 0.4 l/m2 in 6 Std. Schnee, Regen
So, 04.12. 7:00 0.0 l/m2 in 12 Std. -
So, 04.12. 1:00 0.0 l/m2 in 6 Std. -
Sa, 03.12. 19:00 0.1 l/m2 in 12 Std. -
Ortszeit Niederschlagsmenge Niederschlagsart
Mo, 05.12. 16:00 0.0 l/m2 in 1 Std. -
Mo, 05.12. 15:50 keine Meldung -
Mo, 05.12. 15:40 keine Meldung -
Mo, 05.12. 15:30 0.0 l/m2 in 30 Min -
Mo, 05.12. 15:20 keine Meldung -
Mo, 05.12. 15:10 keine Meldung -
Mo, 05.12. 15:00 0.0 l/m2 in 1 Std. -
Mo, 05.12. 14:30 0.0 l/m2 in 30 Min -
Mo, 05.12. 14:00 0.0 l/m2 in 1 Std. -
Mo, 05.12. 13:30 0.0 l/m2 in 30 Min -
Mo, 05.12. 13:00 0.0 l/m2 in 1 Std. Schnee
Ortszeit Stärke Spitze Richtung
km/h Bft. km/h Grad Sektor
Mo, 05.12. 13:00 44 6 57 210° SW
Mo, 05.12. 7:00 40 6 72 230° SW
Mo, 05.12. 1:00 54 7 58 230° SW
So, 04.12. 19:00 11 2 29 40° NO
So, 04.12. 13:00 22 4 33 90° O
So, 04.12. 7:00 11 2 47 50° NO
So, 04.12. 1:00 33 5 57 160° S
Sa, 03.12. 19:00 43 6 61 100° O
Ortszeit Stärke Spitze Richtung
km/h Bft. km/h Grad Sektor
Mo, 05.12. 16:00 15 3 43 250° W
Mo, 05.12. 15:50 15 3 - 250° W
Mo, 05.12. 15:40 24 4 - 240° SW
Mo, 05.12. 15:30 18 3 43 230° SW
Mo, 05.12. 15:20 18 3 - 230° SW
Mo, 05.12. 15:10 24 4 - 240° SW
Mo, 05.12. 15:00 37 5 61 240° SW
Mo, 05.12. 14:30 41 6 57 210° SW
Mo, 05.12. 14:00 39 6 56 220° SW
Mo, 05.12. 13:30 47 6 54 210° SW
Mo, 05.12. 13:00 44 6 57 210° SW
Ortszeit Untergrenze Bedeckung Gattung
total tief tief mittel hoch
Mo, 05.12. 13:00 <30 m 8/8 0/8 - - -
Mo, 05.12. 7:00 <30 m 8/8 0/8 - - -
Mo, 05.12. 1:00 <30 m 8/8 0/8 - - -
So, 04.12. 19:00 <30 m 8/8 0/8 - - -
So, 04.12. 13:00 360 m 8/8 8/8 - - -
So, 04.12. 7:00 2400 m 6/8 5/8 - - -
So, 04.12. 1:00 3300 m 3/8 1/8 - - -
Sa, 03.12. 19:00 4200 m 8/8 8/8 - - -
Ortszeit Bedeckungsgrad in Achtel und Wolkenuntergrenze
Mo, 05.12. 16:00 7(<30m)
Mo, 05.12. 15:50 7(<30m)
Mo, 05.12. 15:40 8
Mo, 05.12. 15:30 8(<30m)
Mo, 05.12. 15:20 8(<30m)
Mo, 05.12. 15:10 8
Mo, 05.12. 15:00 7(<30m)
Mo, 05.12. 14:30 7(<30m)
Mo, 05.12. 14:00 7(<30m)
Mo, 05.12. 13:30 7(<30m) 7(120m)
Mo, 05.12. 13:00 7(<30m) 8(3000m)
Ortszeit Stationsdruck (hPa) Tendenz (hPa in 3 Std.)
Mo, 05.12. 13:00 847 + 0,2
Mo, 05.12. 7:00 846 + 0,9
Mo, 05.12. 1:00 844 + 1,3
So, 04.12. 19:00 842 + 0,6
So, 04.12. 13:00 842 - 0,2
So, 04.12. 7:00 842 + 0,2
So, 04.12. 1:00 842 - 0,4
Sa, 03.12. 19:00 842 - 0,4
Ortszeit Stationsdruck (hPa) Tendenz (hPa in 3 Std.)
Mo, 05.12. 16:00 848 + 0,5
Mo, 05.12. 15:50 848 keine Meldung
Mo, 05.12. 15:40 847 keine Meldung
Mo, 05.12. 15:30 847 + 0,2
Mo, 05.12. 15:20 847 keine Meldung
Mo, 05.12. 15:10 847 keine Meldung
Mo, 05.12. 15:00 847 0,0
Mo, 05.12. 14:30 847 - 0,4
Mo, 05.12. 14:00 847 - 0,3
Mo, 05.12. 13:30 847 - 0,1
Mo, 05.12. 13:00 847 + 0,2
Ortszeit Schneehöhe (cm)
Mo, 05.12. 13:00 19
Mo, 05.12. 7:00 19
Mo, 05.12. 1:00 18
So, 04.12. 19:00 18
So, 04.12. 13:00 20
So, 04.12. 7:00 20
So, 04.12. 1:00 20
Sa, 03.12. 19:00 20
Ortszeit Schneehöhe (cm)
Mo, 05.12. 16:00 19
Mo, 05.12. 15:50 19
Mo, 05.12. 15:40 19
Mo, 05.12. 15:30 19
Mo, 05.12. 15:20 19
Mo, 05.12. 15:10 19
Mo, 05.12. 15:00 19
Mo, 05.12. 14:30 19
Mo, 05.12. 14:00 19
Mo, 05.12. 13:30 19
Mo, 05.12. 13:00 19
Link zu dieser Seite / Seite empfehlen

Das Wetter in ...